sensor_id;sensor_type;location;lat;lon;timestamp;pressure;altitude;pressure_sealevel;temperature;humidity
78354;BME280;67629;46.040;18.232;2024-01-30T00:02:19;101974.94;;;-0.28;100.00
78354;BME280;67629;46.040;18.232;2024-01-30T00:02:50;101969.06;;;-0.33;100.00
78354;BME280;67629;46.040;18.232;2024-01-30T00:03:20;101968.97;;;-0.32;100.00
78354;BME280;67629;46.040;18.232;2024-01-30T00:03:51;101971.03;;;-0.35;100.00
78354;BME280;67629;46.040;18.232;2024-01-30T00:04:22;101967.84;;;-0.40;100.00
78354;BME280;67629;46.040;18.232;2024-01-30T00:05:31;101977.25;;;-0.35;100.00
78354;BME280;67629;46.040;18.232;2024-01-30T00:06:05;101983.47;;;-0.34;100.00
78354;BME280;67629;46.040;18.232;2024-01-30T00:06:36;101977.25;;;-0.35;100.00
78354;BME280;67629;46.040;18.232;2024-01-30T00:07:06;101969.31;;;-0.36;100.00
78354;BME280;67629;46.040;18.232;2024-01-30T00:07:37;101971.13;;;-0.37;100.00
78354;BME280;67629;46.040;18.232;2024-01-30T00:08:07;101975.13;;;-0.42;100.00
78354;BME280;67629;46.040;18.232;2024-01-30T00:08:38;101969.78;;;-0.42;100.00
78354;BME280;67629;46.040;18.232;2024-01-30T00:09:09;101974.03;;;-0.40;100.00
78354;BME280;67629;46.040;18.232;2024-01-30T00:09:40;101972.34;;;-0.41;100.00
78354;BME280;67629;46.040;18.232;2024-01-30T00:10:11;101969.44;;;-0.38;100.00
78354;BME280;67629;46.040;18.232;2024-01-30T00:10:41;101958.34;;;-0.33;100.00
78354;BME280;67629;46.040;18.232;2024-01-30T00:11:12;101964.31;;;-0.41;100.00
78354;BME280;67629;46.040;18.232;2024-01-30T00:11:43;101967.63;;;-0.37;100.00
78354;BME280;67629;46.040;18.232;2024-01-30T00:12:13;101968.34;;;-0.35;100.00
78354;BME280;67629;46.040;18.232;2024-01-30T00:12:44;101965.66;;;-0.35;100.00
78354;BME280;67629;46.040;18.232;2024-01-30T00:13:15;101963.94;;;-0.36;100.00
78354;BME280;67629;46.040;18.232;2024-01-30T00:13:48;101975.66;;;-0.37;100.00
78354;BME280;67629;46.040;18.232;2024-01-30T00:14:18;101968.81;;;-0.41;100.00
78354;BME280;67629;46.040;18.232;2024-01-30T00:14:49;101962.72;;;-0.43;100.00
78354;BME280;67629;46.040;18.232;2024-01-30T00:20:35;101982.97;;;-0.39;100.00
78354;BME280;67629;46.040;18.232;2024-01-30T00:21:06;101978.81;;;-0.43;100.00
78354;BME280;67629;46.040;18.232;2024-01-30T00:21:36;101978.81;;;-0.43;100.00
78354;BME280;67629;46.040;18.232;2024-01-30T00:22:07;101978.91;;;-0.45;100.00
78354;BME280;67629;46.040;18.232;2024-01-30T00:22:38;101990.28;;;-0.41;100.00
78354;BME280;67629;46.040;18.232;2024-01-30T00:23:09;101985.50;;;-0.49;100.00
78354;BME280;67629;46.040;18.232;2024-01-30T00:23:39;101983.66;;;-0.48;100.00
78354;BME280;67629;46.040;18.232;2024-01-30T00:24:10;101984.41;;;-0.46;100.00
78354;BME280;67629;46.040;18.232;2024-01-30T00:24:41;101979.28;;;-0.49;100.00
78354;BME280;67629;46.040;18.232;2024-01-30T00:26:51;101980.97;;;-0.48;100.00
78354;BME280;67629;46.040;18.232;2024-01-30T00:27:22;101989.88;;;-0.48;100.00
78354;BME280;67629;46.040;18.232;2024-01-30T00:27:53;101988.06;;;-0.47;100.00
78354;BME280;67629;46.040;18.232;2024-01-30T00:28:24;101985.84;;;-0.53;100.00
78354;BME280;67629;46.040;18.232;2024-01-30T00:28:54;101988.75;;;-0.57;100.00
78354;BME280;67629;46.040;18.232;2024-01-30T00:29:25;101985.31;;;-0.59;100.00
78354;BME280;67629;46.040;18.232;2024-01-30T00:30:00;101982.63;;;-0.59;100.00
78354;BME280;67629;46.040;18.232;2024-01-30T00:30:31;101986.41;;;-0.61;100.00
78354;BME280;67629;46.040;18.232;2024-01-30T00:31:01;101986.91;;;-0.56;100.00
78354;BME280;67629;46.040;18.232;2024-01-30T00:31:32;101989.19;;;-0.63;100.00
78354;BME280;67629;46.040;18.232;2024-01-30T00:32:03;101985.41;;;-0.60;100.00
78354;BME280;67629;46.040;18.232;2024-01-30T00:32:34;101984.81;;;-0.64;100.00
78354;BME280;67629;46.040;18.232;2024-01-30T00:33:04;101991.16;;;-0.65;100.00
78354;BME280;67629;46.040;18.232;2024-01-30T00:33:35;101988.47;;;-0.65;100.00
78354;BME280;67629;46.040;18.232;2024-01-30T00:34:06;101990.41;;;-0.67;100.00
78354;BME280;67629;46.040;18.232;2024-01-30T00:34:36;101990.50;;;-0.68;100.00
78354;BME280;67629;46.040;18.232;2024-01-30T00:35:07;101993.09;;;-0.67;100.00
78354;BME280;67629;46.040;18.232;2024-01-30T00:35:40;101995.78;;;-0.67;100.00
78354;BME280;67629;46.040;18.232;2024-01-30T00:42:44;101984.22;;;-0.80;100.00
78354;BME280;67629;46.040;18.232;2024-01-30T00:43:15;101988.84;;;-0.82;100.00
78354;BME280;67629;46.040;18.232;2024-01-30T00:43:46;101997.63;;;-0.80;100.00
78354;BME280;67629;46.040;18.232;2024-01-30T00:44:17;101991.88;;;-0.86;100.00
78354;BME280;67629;46.040;18.232;2024-01-30T00:44:47;101985.88;;;-0.90;100.00
78354;BME280;67629;46.040;18.232;2024-01-30T00:45:18;102004.44;;;-0.87;100.00
78354;BME280;67629;46.040;18.232;2024-01-30T00:45:49;101999.59;;;-0.94;100.00
78354;BME280;67629;46.040;18.232;2024-01-30T00:46:21;101990.59;;;-0.93;100.00
78354;BME280;67629;46.040;18.232;2024-01-30T00:46:51;101995.75;;;-0.90;100.00
78354;BME280;67629;46.040;18.232;2024-01-30T00:47:22;101998.22;;;-0.87;100.00
78354;BME280;67629;46.040;18.232;2024-01-30T00:47:53;101990.59;;;-0.93;100.00
78354;BME280;67629;46.040;18.232;2024-01-30T00:48:23;101995.63;;;-0.89;100.00
78354;BME280;67629;46.040;18.232;2024-01-30T00:48:54;101988.06;;;-0.95;100.00
78354;BME280;67629;46.040;18.232;2024-01-30T00:49:25;101996.25;;;-0.85;100.00
78354;BME280;67629;46.040;18.232;2024-01-30T00:49:55;101997.75;;;-0.81;100.00
78354;BME280;67629;46.040;18.232;2024-01-30T00:50:26;101987.75;;;-0.79;100.00
78354;BME280;67629;46.040;18.232;2024-01-30T00:50:57;101992.03;;;-0.77;100.00
78354;BME280;67629;46.040;18.232;2024-01-30T00:51:27;101990.88;;;-0.73;100.00
78354;BME280;67629;46.040;18.232;2024-01-30T00:54:25;101981.44;;;-0.78;100.00
78354;BME280;67629;46.040;18.232;2024-01-30T00:55:26;101987.13;;;-0.83;100.00
78354;BME280;67629;46.040;18.232;2024-01-30T00:56:58;101993.34;;;-0.82;100.00
78354;BME280;67629;46.040;18.232;2024-01-30T00:58:34;101988.19;;;-0.73;100.00
78354;BME280;67629;46.040;18.232;2024-01-30T01:00:05;101992.56;;;-0.72;100.00
78354;BME280;67629;46.040;18.232;2024-01-30T01:02:02;102000.59;;;-0.72;100.00
78354;BME280;67629;46.040;18.232;2024-01-30T01:03:33;101991.81;;;-0.74;100.00
78354;BME280;67629;46.040;18.232;2024-01-30T01:05:11;101988.06;;;-0.71;100.00
78354;BME280;67629;46.040;18.232;2024-01-30T01:08:19;101987.94;;;-0.70;100.00
78354;BME280;67629;46.040;18.232;2024-01-30T01:10:34;101991.28;;;-0.66;100.00
78354;BME280;67629;46.040;18.232;2024-01-30T01:12:27;101984.28;;;-0.69;100.00
78354;BME280;67629;46.040;18.232;2024-01-30T01:14:12;101992.47;;;-0.70;100.00
78354;BME280;67629;46.040;18.232;2024-01-30T01:15:20;101984.50;;;-0.72;100.00
78354;BME280;67629;46.040;18.232;2024-01-30T01:15:51;101986.00;;;-0.68;100.00
78354;BME280;67629;46.040;18.232;2024-01-30T01:16:22;101984.19;;;-0.67;100.00
78354;BME280;67629;46.040;18.232;2024-01-30T01:16:53;101990.50;;;-0.68;100.00
78354;BME280;67629;46.040;18.232;2024-01-30T01:17:24;101983.78;;;-0.74;100.00
78354;BME280;67629;46.040;18.232;2024-01-30T01:17:55;101985.59;;;-0.74;100.00
78354;BME280;67629;46.040;18.232;2024-01-30T01:18:25;101984.28;;;-0.69;100.00
78354;BME280;67629;46.040;18.232;2024-01-30T01:18:58;101984.81;;;-0.64;100.00
78354;BME280;67629;46.040;18.232;2024-01-30T01:19:30;101981.72;;;-0.70;100.00
78354;BME280;67629;46.040;18.232;2024-01-30T01:20:01;101980.88;;;-0.71;100.00
78354;BME280;67629;46.040;18.232;2024-01-30T01:20:32;101974.75;;;-0.73;100.00
78354;BME280;67629;46.040;18.232;2024-01-30T01:21:03;101974.03;;;-0.75;100.00
78354;BME280;67629;46.040;18.232;2024-01-30T01:21:33;101979.03;;;-0.70;100.00
78354;BME280;67629;46.040;18.232;2024-01-30T01:22:05;101973.16;;;-0.75;100.00
78354;BME280;67629;46.040;18.232;2024-01-30T01:22:35;101973.50;;;-0.80;100.00
78354;BME280;67629;46.040;18.232;2024-01-30T01:23:06;101975.44;;;-0.82;100.00
78354;BME280;67629;46.040;18.232;2024-01-30T01:23:37;101967.63;;;-0.85;100.00
78354;BME280;67629;46.040;18.232;2024-01-30T01:27:23;101984.38;;;-0.94;100.00
78354;BME280;67629;46.040;18.232;2024-01-30T01:27:53;101974.06;;;-0.87;100.00
78354;BME280;67629;46.040;18.232;2024-01-30T01:28:24;101977.72;;;-0.88;100.00
78354;BME280;67629;46.040;18.232;2024-01-30T01:28:55;101966.34;;;-0.92;100.00
78354;BME280;67629;46.040;18.232;2024-01-30T01:29:25;101966.97;;;-0.88;100.00
78354;BME280;67629;46.040;18.232;2024-01-30T01:29:59;101971.16;;;-0.84;100.00
78354;BME280;67629;46.040;18.232;2024-01-30T01:30:29;101969.34;;;-0.84;100.00
78354;BME280;67629;46.040;18.232;2024-01-30T01:31:00;101973.84;;;-0.84;100.00
78354;BME280;67629;46.040;18.232;2024-01-30T01:31:38;101969.34;;;-0.84;100.00
78354;BME280;67629;46.040;18.232;2024-01-30T01:35:35;101967.09;;;-0.90;100.00
78354;BME280;67629;46.040;18.232;2024-01-30T01:36:05;101966.59;;;-0.95;100.00
78354;BME280;67629;46.040;18.232;2024-01-30T01:36:37;101967.78;;;-0.99;100.00
78354;BME280;67629;46.040;18.232;2024-01-30T01:37:08;101968.22;;;-1.05;100.00
78354;BME280;67629;46.040;18.232;2024-01-30T01:37:38;101975.09;;;-1.01;100.00
78354;BME280;67629;46.040;18.232;2024-01-30T01:38:09;101976.78;;;-1.00;100.00
78354;BME280;67629;46.040;18.232;2024-01-30T01:38:40;101976.91;;;-1.01;100.00
78354;BME280;67629;46.040;18.232;2024-01-30T01:39:10;101968.63;;;-0.98;100.00
78354;BME280;67629;46.040;18.232;2024-01-30T01:39:41;101970.00;;;-0.93;100.00
78354;BME280;67629;46.040;18.232;2024-01-30T01:42:19;101970.97;;;-0.94;100.00
78354;BME280;67629;46.040;18.232;2024-01-30T01:42:51;101964.66;;;-0.93;100.00
78354;BME280;67629;46.040;18.232;2024-01-30T01:44:03;101968.28;;;-0.94;100.00
78354;BME280;67629;46.040;18.232;2024-01-30T01:44:33;101962.50;;;-1.00;100.00
78354;BME280;67629;46.040;18.232;2024-01-30T01:45:04;101971.09;;;-0.95;100.00
78354;BME280;67629;46.040;18.232;2024-01-30T01:45:36;101960.53;;;-0.86;100.00
78354;BME280;67629;46.040;18.232;2024-01-30T01:46:08;101969.28;;;-0.95;100.00
78354;BME280;67629;46.040;18.232;2024-01-30T01:46:39;101961.69;;;-1.01;100.00
78354;BME280;67629;46.040;18.232;2024-01-30T01:47:11;101962.06;;;-0.94;100.00
78354;BME280;67629;46.040;18.232;2024-01-30T01:47:42;101966.81;;;-0.98;100.00
78354;BME280;67629;46.040;18.232;2024-01-30T01:48:13;101967.88;;;-1.00;100.00
78354;BME280;67629;46.040;18.232;2024-01-30T01:48:44;101965.53;;;-1.05;100.00
78354;BME280;67629;46.040;18.232;2024-01-30T01:49:15;101967.72;;;-1.10;100.00
78354;BME280;67629;46.040;18.232;2024-01-30T01:49:47;101967.94;;;-1.13;100.00
78354;BME280;67629;46.040;18.232;2024-01-30T01:50:20;101961.84;;;-1.15;100.00
78354;BME280;67629;46.040;18.232;2024-01-30T01:50:52;101968.22;;;-1.05;100.00
78354;BME280;67629;46.040;18.232;2024-01-30T01:51:24;101969.38;;;-0.96;100.00
78354;BME280;67629;46.040;18.232;2024-01-30T01:51:58;101968.22;;;-1.05;100.00
78354;BME280;67629;46.040;18.232;2024-01-30T01:52:29;101963.97;;;-1.20;100.00
78354;BME280;67629;46.040;18.232;2024-01-30T01:53:55;101960.75;;;-1.12;100.00
78354;BME280;67629;46.040;18.232;2024-01-30T01:54:28;101964.28;;;-1.12;100.00
78354;BME280;67629;46.040;18.232;2024-01-30T01:55:01;101961.94;;;-1.17;100.00
78354;BME280;67629;46.040;18.232;2024-01-30T01:55:31;101960.19;;;-1.18;100.00
78354;BME280;67629;46.040;18.232;2024-01-30T01:56:02;101965.47;;;-1.16;100.00
78354;BME280;67629;46.040;18.232;2024-01-30T01:56:34;101958.59;;;-1.20;100.00
78354;BME280;67629;46.040;18.232;2024-01-30T01:57:06;101965.16;;;-1.24;100.00
78354;BME280;67629;46.040;18.232;2024-01-30T01:57:37;101962.50;;;-1.24;100.00
78354;BME280;67629;46.040;18.232;2024-01-30T01:58:09;101971.63;;;-1.27;100.00
78354;BME280;67629;46.040;18.232;2024-01-30T01:58:41;101961.84;;;-1.28;100.00
78354;BME280;67629;46.040;18.232;2024-01-30T01:59:12;101966.44;;;-1.17;100.00
78354;BME280;67629;46.040;18.232;2024-01-30T01:59:43;101957.31;;;-1.15;100.00
78354;BME280;67629;46.040;18.232;2024-01-30T02:00:14;101965.97;;;-1.11;100.00
78354;BME280;67629;46.040;18.232;2024-01-30T02:00:46;101958.59;;;-1.20;100.00
78354;BME280;67629;46.040;18.232;2024-01-30T02:01:20;101967.28;;;-1.17;100.00
78354;BME280;67629;46.040;18.232;2024-01-30T02:01:53;101958.16;;;-1.14;100.00
78354;BME280;67629;46.040;18.232;2024-01-30T02:02:25;101955.16;;;-1.09;100.00
78354;BME280;67629;46.040;18.232;2024-01-30T02:03:54;101951.28;;;-1.05;100.00
78354;BME280;67629;46.040;18.232;2024-01-30T02:04:24;101966.19;;;-1.14;100.00
78354;BME280;67629;46.040;18.232;2024-01-30T02:04:55;101957.44;;;-1.16;100.00
78354;BME280;67629;46.040;18.232;2024-01-30T02:05:26;101962.84;;;-1.05;100.00
78354;BME280;67629;46.040;18.232;2024-01-30T02:05:58;101957.78;;;-0.97;100.00
78354;BME280;67629;46.040;18.232;2024-01-30T02:06:28;101970.31;;;-0.97;100.00
78354;BME280;67629;46.040;18.232;2024-01-30T02:06:59;101967.03;;;-1.01;100.00
78354;BME280;67629;46.040;18.232;2024-01-30T02:07:30;101968.88;;;-1.01;100.00
78354;BME280;67629;46.040;18.232;2024-01-30T02:08:01;101966.28;;;-1.03;100.00
78354;BME280;67629;46.040;18.232;2024-01-30T02:08:32;101969.72;;;-1.01;100.00
78354;BME280;67629;46.040;18.232;2024-01-30T02:09:03;101963.59;;;-1.03;100.00
78354;BME280;67629;46.040;18.232;2024-01-30T02:09:35;101959.22;;;-1.04;100.00
78354;BME280;67629;46.040;18.232;2024-01-30T02:10:07;101969.38;;;-0.96;100.00
78354;BME280;67629;46.040;18.232;2024-01-30T02:10:39;101972.91;;;-0.96;100.00
78354;BME280;67629;46.040;18.232;2024-01-30T02:11:10;101965.19;;;-1.00;100.00
78354;BME280;67629;46.040;18.232;2024-01-30T02:11:42;101962.75;;;-1.03;100.00
78354;BME280;67629;46.040;18.232;2024-01-30T02:12:12;101963.72;;;-1.04;100.00
78354;BME280;67629;46.040;18.232;2024-01-30T02:12:43;101971.75;;;-1.04;100.00
78354;BME280;67629;46.040;18.232;2024-01-30T02:19:26;101968.88;;;-0.78;100.00
78354;BME280;67629;46.040;18.232;2024-01-30T02:19:56;101961.34;;;-0.73;100.00
78354;BME280;67629;46.040;18.232;2024-01-30T02:20:30;101964.66;;;-0.69;100.00
78354;BME280;67629;46.040;18.232;2024-01-30T02:21:04;101965.63;;;-0.70;100.00
78354;BME280;67629;46.040;18.232;2024-01-30T02:21:35;101963.41;;;-0.76;100.00
78354;BME280;67629;46.040;18.232;2024-01-30T02:22:06;101969.50;;;-0.74;100.00
78354;BME280;67629;46.040;18.232;2024-01-30T02:22:37;101970.47;;;-0.75;100.00
78354;BME280;67629;46.040;18.232;2024-01-30T02:23:10;101964.72;;;-0.82;100.00
78354;BME280;67629;46.040;18.232;2024-01-30T02:23:46;101967.16;;;-0.79;100.00
78354;BME280;67629;46.040;18.232;2024-01-30T02:24:17;101964.91;;;-0.72;100.00
78354;BME280;67629;46.040;18.232;2024-01-30T02:29:47;101969.69;;;-0.65;100.00
78354;BME280;67629;46.040;18.232;2024-01-30T02:30:18;101969.31;;;-0.60;100.00
78354;BME280;67629;46.040;18.232;2024-01-30T02:30:48;101967.00;;;-0.65;100.00
78354;BME280;67629;46.040;18.232;2024-01-30T02:31:19;101966.75;;;-0.62;100.00
78354;BME280;67629;46.040;18.232;2024-01-30T02:31:50;101967.00;;;-0.65;100.00
78354;BME280;67629;46.040;18.232;2024-01-30T02:32:20;101960.13;;;-0.69;100.00
78354;BME280;67629;46.040;18.232;2024-01-30T02:32:51;101960.06;;;-0.80;100.00
78354;BME280;67629;46.040;18.232;2024-01-30T02:33:22;101967.66;;;-0.97;100.00
78354;BME280;67629;46.040;18.232;2024-01-30T02:33:52;101970.16;;;-1.07;100.00
78354;BME280;67629;46.040;18.232;2024-01-30T02:34:23;101956.00;;;-1.09;100.00
78354;BME280;67629;46.040;18.232;2024-01-30T02:34:54;101971.69;;;-0.92;100.00
78354;BME280;67629;46.040;18.232;2024-01-30T02:35:25;101966.66;;;-0.84;100.00
78354;BME280;67629;46.040;18.232;2024-01-30T02:35:55;101964.84;;;-0.83;100.00
78354;BME280;67629;46.040;18.232;2024-01-30T02:36:26;101969.13;;;-0.81;100.00
78354;BME280;67629;46.040;18.232;2024-01-30T02:36:57;101968.03;;;-0.78;100.00
78354;BME280;67629;46.040;18.232;2024-01-30T02:37:27;101967.38;;;-0.82;100.00
78354;BME280;67629;46.040;18.232;2024-01-30T02:37:58;101967.56;;;-0.72;100.00
78354;BME280;67629;46.040;18.232;2024-01-30T02:38:29;101967.13;;;-0.66;100.00
78354;BME280;67629;46.040;18.232;2024-01-30T02:38:59;101961.97;;;-0.69;100.00
78354;BME280;67629;46.040;18.232;2024-01-30T02:39:30;101973.31;;;-0.66;100.00
78354;BME280;67629;46.040;18.232;2024-01-30T02:40:01;101973.84;;;-0.61;100.00
78354;BME280;67629;46.040;18.232;2024-01-30T02:40:32;101967.28;;;-0.57;100.00
78354;BME280;67629;46.040;18.232;2024-01-30T02:41:02;101968.13;;;-0.56;100.00
78354;BME280;67629;46.040;18.232;2024-01-30T02:41:33;101968.81;;;-0.65;100.00
78354;BME280;67629;46.040;18.232;2024-01-30T02:42:04;101964.03;;;-0.73;100.00
78354;BME280;67629;46.040;18.232;2024-01-30T02:42:34;101970.75;;;-0.67;100.00
78354;BME280;67629;46.040;18.232;2024-01-30T02:43:05;101969.53;;;-0.63;100.00
78354;BME280;67629;46.040;18.232;2024-01-30T02:43:36;101961.41;;;-0.62;100.00
78354;BME280;67629;46.040;18.232;2024-01-30T02:44:06;101965.16;;;-0.64;100.00
78354;BME280;67629;46.040;18.232;2024-01-30T02:44:37;101974.91;;;-0.63;100.00
78354;BME280;67629;46.040;18.232;2024-01-30T02:45:08;101974.19;;;-0.65;100.00
78354;BME280;67629;46.040;18.232;2024-01-30T02:45:39;101966.03;;;-0.64;100.00
78354;BME280;67629;46.040;18.232;2024-01-30T02:46:10;101971.19;;;-0.61;100.00
78354;BME280;67629;46.040;18.232;2024-01-30T02:46:41;101967.72;;;-0.63;100.00
78354;BME280;67629;46.040;18.232;2024-01-30T02:47:11;101968.59;;;-0.62;100.00
78354;BME280;67629;46.040;18.232;2024-01-30T02:47:42;101961.28;;;-0.60;100.00
78354;BME280;67629;46.040;18.232;2024-01-30T02:48:13;101973.50;;;-0.56;100.00
78354;BME280;67629;46.040;18.232;2024-01-30T02:48:46;101975.22;;;-0.55;100.00
78354;BME280;67629;46.040;18.232;2024-01-30T02:54:30;101971.09;;;-0.72;100.00
78354;BME280;67629;46.040;18.232;2024-01-30T02:55:01;101967.22;;;-0.68;100.00
78354;BME280;67629;46.040;18.232;2024-01-30T02:55:33;101967.00;;;-0.65;100.00
78354;BME280;67629;46.040;18.232;2024-01-30T02:56:04;101964.31;;;-0.65;100.00
78354;BME280;67629;46.040;18.232;2024-01-30T02:56:36;101963.91;;;-0.71;100.00
78354;BME280;67629;46.040;18.232;2024-01-30T02:57:06;101962.31;;;-0.74;100.00
78354;BME280;67629;46.040;18.232;2024-01-30T02:57:37;101959.31;;;-0.69;100.00
78354;BME280;67629;46.040;18.232;2024-01-30T02:58:11;101957.94;;;-0.75;100.00
78354;BME280;67629;46.040;18.232;2024-01-30T02:58:42;101961.44;;;-0.74;100.00
78354;BME280;67629;46.040;18.232;2024-01-30T02:59:13;101966.94;;;-0.76;100.00
78354;BME280;67629;46.040;18.232;2024-01-30T02:59:43;101956.44;;;-0.79;100.00
78354;BME280;67629;46.040;18.232;2024-01-30T03:00:14;101953.84;;;-0.80;100.00
78354;BME280;67629;46.040;18.232;2024-01-30T03:00:45;101955.16;;;-0.86;100.00
78354;BME280;67629;46.040;18.232;2024-01-30T03:01:16;101961.78;;;-1.02;100.00
78354;BME280;67629;46.040;18.232;2024-01-30T03:01:46;101953.84;;;-1.04;100.00
78354;BME280;67629;46.040;18.232;2024-01-30T03:02:18;101949.66;;;-0.95;100.00
78354;BME280;67629;46.040;18.232;2024-01-30T03:02:48;101952.69;;;-0.89;100.00
78354;BME280;67629;46.040;18.232;2024-01-30T03:03:19;101953.47;;;-0.87;100.00
78354;BME280;67629;46.040;18.232;2024-01-30T03:03:50;101950.78;;;-0.87;100.00
78354;BME280;67629;46.040;18.232;2024-01-30T03:04:21;101946.38;;;-0.88;100.00
78354;BME280;67629;46.040;18.232;2024-01-30T03:04:51;101946.59;;;-0.91;100.00
78354;BME280;67629;46.040;18.232;2024-01-30T03:05:22;101948.13;;;-0.99;100.00
78354;BME280;67629;46.040;18.232;2024-01-30T03:05:52;101946.97;;;-0.95;100.00
78354;BME280;67629;46.040;18.232;2024-01-30T03:06:23;101952.53;;;-0.98;100.00
78354;BME280;67629;46.040;18.232;2024-01-30T03:06:54;101954.59;;;-1.02;100.00
78354;BME280;67629;46.040;18.232;2024-01-30T03:07:25;101952.94;;;-1.16;100.00
78354;BME280;67629;46.040;18.232;2024-01-30T03:07:56;101955.81;;;-1.19;100.00
78354;BME280;67629;46.040;18.232;2024-01-30T03:08:27;101951.78;;;-1.24;100.00
78354;BME280;67629;46.040;18.232;2024-01-30T03:08:57;101949.53;;;-1.30;100.00
78354;BME280;67629;46.040;18.232;2024-01-30T03:09:28;101961.84;;;-1.28;100.00
78354;BME280;67629;46.040;18.232;2024-01-30T03:09:59;101951.25;;;-1.29;100.00
78354;BME280;67629;46.040;18.232;2024-01-30T03:10:29;101957.66;;;-1.32;100.00
78354;BME280;67629;46.040;18.232;2024-01-30T03:11:00;101957.88;;;-1.35;100.00
78354;BME280;67629;46.040;18.232;2024-01-30T03:11:31;101960.25;;;-1.43;100.00
78354;BME280;67629;46.040;18.232;2024-01-30T03:12:02;101957.06;;;-1.48;100.00
78354;BME280;67629;46.040;18.232;2024-01-30T03:12:32;101953.44;;;-1.47;100.00
78354;BME280;67629;46.040;18.232;2024-01-30T03:13:03;101958.44;;;-1.42;100.00
78354;BME280;67629;46.040;18.232;2024-01-30T03:13:34;101958.22;;;-1.39;100.00
78354;BME280;67629;46.040;18.232;2024-01-30T03:19:10;101956.28;;;-1.25;100.00
78354;BME280;67629;46.040;18.232;2024-01-30T03:19:41;101948.44;;;-1.28;100.00
78354;BME280;67629;46.040;18.232;2024-01-30T03:20:11;101952.72;;;-1.25;100.00
78354;BME280;67629;46.040;18.232;2024-01-30T03:20:42;101960.47;;;-1.21;100.00
78354;BME280;67629;46.040;18.232;2024-01-30T03:21:13;101954.00;;;-1.18;100.00
78354;BME280;67629;46.040;18.232;2024-01-30T03:21:43;101957.88;;;-1.22;100.00
78354;BME280;67629;46.040;18.232;2024-01-30T03:22:14;101955.91;;;-1.20;100.00
78354;BME280;67629;46.040;18.232;2024-01-30T03:22:45;101960.47;;;-1.21;100.00
78354;BME280;67629;46.040;18.232;2024-01-30T03:23:15;101956.91;;;-1.21;100.00
78354;BME280;67629;46.040;18.232;2024-01-30T03:23:46;101958.81;;;-1.23;100.00
78354;BME280;67629;46.040;18.232;2024-01-30T03:24:17;101963.66;;;-1.28;100.00
78354;BME280;67629;46.040;18.232;2024-01-30T03:24:47;101958.31;;;-1.28;100.00
78354;BME280;67629;46.040;18.232;2024-01-30T03:25:18;101952.31;;;-1.32;100.00
78354;BME280;67629;46.040;18.232;2024-01-30T03:25:49;101957.56;;;-1.30;100.00
78354;BME280;67629;46.040;18.232;2024-01-30T03:26:20;101954.66;;;-1.27;100.00
78354;BME280;67629;46.040;18.232;2024-01-30T03:26:50;101955.31;;;-1.24;100.00
78354;BME280;67629;46.040;18.232;2024-01-30T03:27:21;101958.59;;;-1.20;100.00
78354;BME280;67629;46.040;18.232;2024-01-30T03:27:52;101953.03;;;-1.17;100.00
78354;BME280;67629;46.040;18.232;2024-01-30T03:28:22;101952.94;;;-1.28;100.00
78354;BME280;67629;46.040;18.232;2024-01-30T03:28:53;101948.44;;;-1.28;100.00
78354;BME280;67629;46.040;18.232;2024-01-30T03:29:24;101958.00;;;-1.24;100.00
78354;BME280;67629;46.040;18.232;2024-01-30T03:29:54;101951.56;;;-1.21;100.00
78354;BME280;67629;46.040;18.232;2024-01-30T03:30:25;101947.59;;;-1.28;100.00
78354;BME280;67629;46.040;18.232;2024-01-30T03:30:56;101951.88;;;-1.26;100.00
78354;BME280;67629;46.040;18.232;2024-01-30T03:31:26;101950.91;;;-1.25;100.00
78354;BME280;67629;46.040;18.232;2024-01-30T03:31:57;101950.78;;;-1.23;100.00
78354;BME280;67629;46.040;18.232;2024-01-30T03:32:27;101955.19;;;-1.22;100.00
78354;BME280;67629;46.040;18.232;2024-01-30T03:32:58;101945.19;;;-1.20;100.00
78354;BME280;67629;46.040;18.232;2024-01-30T03:33:29;101954.00;;;-1.18;100.00
78354;BME280;67629;46.040;18.232;2024-01-30T03:34:01;101954.00;;;-1.18;100.00
78354;BME280;67629;46.040;18.232;2024-01-30T03:34:31;101955.38;;;-1.12;100.00
78354;BME280;67629;46.040;18.232;2024-01-30T03:35:02;101957.94;;;-1.11;100.00
78354;BME280;67629;46.040;18.232;2024-01-30T03:35:33;101949.81;;;-1.09;100.00
78354;BME280;67629;46.040;18.232;2024-01-30T03:36:04;101956.75;;;-1.07;100.00
78354;BME280;67629;46.040;18.232;2024-01-30T03:36:35;101954.31;;;-1.10;100.00
78354;BME280;67629;46.040;18.232;2024-01-30T03:42:29;101944.31;;;-1.08;100.00
78354;BME280;67629;46.040;18.232;2024-01-30T03:43:00;101947.50;;;-1.03;100.00
78354;BME280;67629;46.040;18.232;2024-01-30T03:43:30;101945.69;;;-1.02;100.00
78354;BME280;67629;46.040;18.232;2024-01-30T03:44:01;101954.59;;;-1.02;100.00
78354;BME280;67629;46.040;18.232;2024-01-30T03:44:32;101945.25;;;-1.09;100.00
78354;BME280;67629;46.040;18.232;2024-01-30T03:45:03;101949.66;;;-1.08;100.00
78354;BME280;67629;46.040;18.232;2024-01-30T03:45:34;101948.94;;;-1.10;100.00
78354;BME280;67629;46.040;18.232;2024-01-30T03:46:04;101947.34;;;-1.12;100.00
78354;BME280;67629;46.040;18.232;2024-01-30T03:46:35;101949.38;;;-1.16;100.00
78354;BME280;67629;46.040;18.232;2024-01-30T03:47:06;101947.22;;;-1.11;100.00
78354;BME280;67629;46.040;18.232;2024-01-30T03:47:36;101947.13;;;-1.09;100.00
78354;BME280;67629;46.040;18.232;2024-01-30T03:48:07;101946.25;;;-1.10;100.00
78354;BME280;67629;46.040;18.232;2024-01-30T03:48:38;101943.44;;;-1.08;100.00
78354;BME280;67629;46.040;18.232;2024-01-30T03:49:09;101943.56;;;-1.10;100.00
78354;BME280;67629;46.040;18.232;2024-01-30T03:49:40;101952.34;;;-1.08;100.00